Time;durP1;ratioP1;P1;durP2;ratioP2;P2;SDS_P1;SDS_P2;PMS_P1;PMS_P2;Temp;Humidity;BMP_temperature;BMP_pressure;BME280_temperature;BME280_humidity;BME280_pressure;Samples;Min_cycle;Max_cycle;Signal;HPM_P1;HPM_P2
2021/11/25 00:02:09;;;;;;;7.73;4.10;;;;;;;;;;5078657;28;20924;-73
2021/11/25 00:04:36;;;;;;;5.67;4.07;;;;;;;;;;5060036;28;20484;-73
2021/11/25 00:07:04;;;;;;;9.03;4.03;;;;;;;;;;5062302;28;20536;-73
2021/11/25 00:09:35;;;;;;;7.57;4.23;;;;;;;;;;5065811;28;20488;-73
2021/11/25 00:12:03;;;;;;;7.30;4.07;;;;;;;;;;5061003;28;20464;-74
2021/11/25 00:14:33;;;;;;;4.97;3.80;;;;;;;;;;5064325;28;20445;-73
2021/11/25 00:17:01;;;;;;;4.97;4.03;;;;;;;;;;5080481;28;20578;-73
2021/11/25 00:19:29;;;;;;;5.60;4.00;;;;;;;;;;5081359;28;20464;-73
2021/11/25 00:21:57;;;;;;;6.83;4.23;;;;;;;;;;5078760;28;20484;-73
2021/11/25 00:24:25;;;;;;;4.67;3.80;;;;;;;;;;5072101;28;20457;-73
2021/11/25 00:26:53;;;;;;;5.00;3.67;;;;;;;;;;5064719;28;20460;-73
2021/11/25 00:29:21;;;;;;;7.10;4.50;;;;;;;;;;5060295;28;20916;-73
2021/11/25 00:31:54;;;;;;;7.10;5.50;;;;;;;;;;5059524;28;20472;-73
2021/11/25 00:34:31;;;;;;;6.07;4.40;;;;;;;;;;5059712;28;20453;-73
2021/11/25 00:36:59;;;;;;;6.50;4.23;;;;;;;;;;5078715;28;20452;-73
2021/11/25 00:39:27;;;;;;;6.63;4.07;;;;;;;;;;5064022;28;20536;-73
2021/11/25 00:41:55;;;;;;;3.97;3.43;;;;;;;;;;5059301;28;20464;-73
2021/11/25 00:44:23;;;;;;;5.23;3.70;;;;;;;;;;5059219;28;20465;-73
2021/11/25 00:46:52;;;;;;;6.57;4.53;;;;;;;;;;5057935;28;20453;-72
2021/11/25 00:49:23;;;;;;;5.73;3.23;;;;;;;;;;5074435;28;20480;-73
2021/11/25 00:51:59;;;;;;;5.00;3.33;;;;;;;;;;5077672;28;20463;-73
2021/11/25 00:54:32;;;;;;;7.90;4.00;;;;;;;;;;5058813;28;20554;-74
2021/11/25 00:57:00;;;;;;;6.57;4.20;;;;;;;;;;5067365;28;20453;-73
2021/11/25 00:59:27;;;;;;;4.50;3.07;;;;;;;;;;5064950;28;20554;-73
2021/11/25 01:01:57;;;;;;;5.93;3.60;;;;;;;;;;5061776;28;20537;-73
2021/11/25 01:04:26;;;;;;;4.03;2.77;;;;;;;;;;5065532;28;20551;-73
2021/11/25 01:06:54;;;;;;;11.30;3.43;;;;;;;;;;5078906;28;20456;-73
2021/11/25 01:09:22;;;;;;;5.13;3.40;;;;;;;;;;5078070;28;20464;-73
2021/11/25 01:11:50;;;;;;;6.20;4.10;;;;;;;;;;5078214;28;20559;-73
2021/11/25 01:14:22;;;;;;;20.37;3.47;;;;;;;;;;5077994;28;20939;-73
2021/11/25 01:16:50;;;;;;;4.37;3.90;;;;;;;;;;5078599;28;20457;-73
2021/11/25 01:19:19;;;;;;;5.93;3.10;;;;;;;;;;5069839;28;20477;-73
2021/11/25 01:21:47;;;;;;;4.47;3.47;;;;;;;;;;5065059;28;20773;-73
2021/11/25 01:24:15;;;;;;;5.03;2.70;;;;;;;;;;5060521;28;20485;-73
2021/11/25 01:26:42;;;;;;;6.17;3.50;;;;;;;;;;5057957;28;20491;-72
2021/11/25 01:29:11;;;;;;;3.90;3.50;;;;;;;;;;5076277;28;20486;-73
2021/11/25 01:31:39;;;;;;;4.30;3.90;;;;;;;;;;5057379;28;20458;-74
2021/11/25 01:34:08;;;;;;;3.50;2.83;;;;;;;;;;5061433;28;20456;-74
2021/11/25 01:36:38;;;;;;;6.37;4.10;;;;;;;;;;5058184;28;20532;-73
2021/11/25 01:39:06;;;;;;;3.77;2.97;;;;;;;;;;5057612;28;20500;-73
2021/11/25 01:41:34;;;;;;;6.00;3.07;;;;;;;;;;5076159;28;20492;-73
2021/11/25 01:44:01;;;;;;;4.37;3.87;;;;;;;;;;5077886;28;20524;-72
2021/11/25 01:46:31;;;;;;;4.37;3.60;;;;;;;;;;5076881;28;20540;-71
2021/11/25 01:48:59;;;;;;;4.40;2.60;;;;;;;;;;5078237;28;20494;-74
2021/11/25 01:51:27;;;;;;;4.50;3.47;;;;;;;;;;5077993;28;20476;-73
2021/11/25 01:53:56;;;;;;;8.23;3.73;;;;;;;;;;5064446;28;20499;-74
2021/11/25 01:56:24;;;;;;;4.00;2.50;;;;;;;;;;5065843;28;20474;-74
2021/11/25 01:58:52;;;;;;;5.50;3.50;;;;;;;;;;5077692;28;20551;-73
2021/11/25 02:01:21;;;;;;;4.90;3.40;;;;;;;;;;5077527;28;20456;-73
2021/11/25 02:03:49;;;;;;;3.83;3.00;;;;;;;;;;5077064;28;20581;-73
2021/11/25 02:06:18;;;;;;;3.70;2.83;;;;;;;;;;5077111;28;20543;-74
2021/11/25 02:08:46;;;;;;;4.00;3.40;;;;;;;;;;5078654;28;20456;-74
2021/11/25 02:11:16;;;;;;;4.63;3.37;;;;;;;;;;5077637;28;20456;-73
2021/11/25 02:13:43;;;;;;;4.23;3.27;;;;;;;;;;5077324;28;20823;-73
2021/11/25 02:16:11;;;;;;;6.27;3.87;;;;;;;;;;5078141;28;20679;-73
2021/11/25 02:18:39;;;;;;;3.50;3.07;;;;;;;;;;5078085;28;20880;-73
2021/11/25 02:21:08;;;;;;;4.67;3.27;;;;;;;;;;5077480;28;20464;-73
2021/11/25 02:23:36;;;;;;;4.67;3.17;;;;;;;;;;5074959;28;20891;-73
2021/11/25 02:26:05;;;;;;;4.83;3.17;;;;;;;;;;5072528;28;20496;-73
2021/11/25 02:28:34;;;;;;;3.73;3.20;;;;;;;;;;5077376;28;20457;-73
2021/11/25 02:31:02;;;;;;;9.90;4.00;;;;;;;;;;5078430;28;20468;-74
2021/11/25 02:33:30;;;;;;;4.37;3.97;;;;;;;;;;5077906;28;20460;-73
2021/11/25 02:35:59;;;;;;;4.53;3.47;;;;;;;;;;5078221;28;20759;-74
2021/11/25 02:38:28;;;;;;;6.70;3.87;;;;;;;;;;5078060;28;20551;-73
2021/11/25 02:40:57;;;;;;;4.97;3.93;;;;;;;;;;5076761;28;20474;-72
2021/11/25 02:43:25;;;;;;;3.40;2.73;;;;;;;;;;5072679;28;20978;-73
2021/11/25 02:45:54;;;;;;;6.07;3.37;;;;;;;;;;5070341;28;20448;-73
2021/11/25 02:48:25;;;;;;;4.47;3.20;;;;;;;;;;5077315;28;20522;-73
2021/11/25 02:50:53;;;;;;;4.00;3.10;;;;;;;;;;5058232;28;20465;-74
2021/11/25 02:53:22;;;;;;;4.10;3.30;;;;;;;;;;5057711;28;20465;-72
2021/11/25 02:55:52;;;;;;;4.17;3.47;;;;;;;;;;5057091;28;20461;-73
2021/11/25 02:58:20;;;;;;;4.83;3.50;;;;;;;;;;5069616;28;20463;-73
2021/11/25 03:00:49;;;;;;;4.17;2.83;;;;;;;;;;5077062;28;20468;-74
2021/11/25 03:03:17;;;;;;;3.77;3.10;;;;;;;;;;5077187;28;20480;-73
2021/11/25 03:05:48;;;;;;;7.80;4.50;;;;;;;;;;5077368;28;20464;-73
2021/11/25 03:08:16;;;;;;;4.20;2.93;;;;;;;;;;5072292;28;20548;-73
2021/11/25 03:10:45;;;;;;;4.90;3.40;;;;;;;;;;5058330;28;20821;-73
2021/11/25 03:13:15;;;;;;;4.93;3.27;;;;;;;;;;5060813;28;20465;-73
2021/11/25 03:15:43;;;;;;;4.43;3.70;;;;;;;;;;5060543;28;20489;-73
2021/11/25 03:18:12;;;;;;;3.03;2.73;;;;;;;;;;5079004;28;20456;-73
2021/11/25 03:20:43;;;;;;;3.10;2.80;;;;;;;;;;5077948;28;20551;-73
2021/11/25 03:23:12;;;;;;;3.50;2.80;;;;;;;;;;5071184;28;20475;-72
2021/11/25 03:25:42;;;;;;;3.67;2.87;;;;;;;;;;5061052;28;20473;-74
2021/11/25 03:28:10;;;;;;;4.73;3.67;;;;;;;;;;5060622;28;20485;-73
2021/11/25 03:30:39;;;;;;;4.23;3.00;;;;;;;;;;5060832;28;20452;-74
2021/11/25 03:33:08;;;;;;;4.63;2.83;;;;;;;;;;5060650;28;20544;-72
2021/11/25 03:35:36;;;;;;;3.93;2.83;;;;;;;;;;5060874;28;20465;-73
2021/11/25 03:38:04;;;;;;;2.70;2.40;;;;;;;;;;5060574;28;20453;-73
2021/11/25 03:40:32;;;;;;;3.40;3.03;;;;;;;;;;5059396;28;20489;-73
2021/11/25 03:43:00;;;;;;;3.10;2.80;;;;;;;;;;5060504;28;20477;-73
2021/11/25 03:45:27;;;;;;;4.17;2.60;;;;;;;;;;5059837;28;20470;-73
2021/11/25 03:47:57;;;;;;;3.40;2.23;;;;;;;;;;5059502;28;20477;-73
2021/11/25 03:50:24;;;;;;;4.20;3.40;;;;;;;;;;5058995;28;20465;-73
2021/11/25 03:52:52;;;;;;;4.23;2.27;;;;;;;;;;5060403;28;20457;-73
2021/11/25 03:55:20;;;;;;;2.83;2.50;;;;;;;;;;5060439;28;20552;-73
2021/11/25 03:57:49;;;;;;;4.70;2.73;;;;;;;;;;5059737;28;20527;-73
2021/11/25 04:00:17;;;;;;;3.23;2.80;;;;;;;;;;5060089;28;20472;-72
2021/11/25 04:02:46;;;;;;;2.83;2.10;;;;;;;;;;5059254;28;20465;-72
2021/11/25 04:05:16;;;;;;;4.07;2.83;;;;;;;;;;5060720;28;20461;-72
2021/11/25 04:07:44;;;;;;;3.50;2.70;;;;;;;;;;5063283;28;20486;-72
2021/11/25 04:10:25;;;;;;;4.50;2.70;;;;;;;;;;5058973;28;20468;-73
2021/11/25 04:12:53;;;;;;;3.50;3.20;;;;;;;;;;5058425;28;20904;-73
2021/11/25 04:15:21;;;;;;;3.87;2.80;;;;;;;;;;5059661;28;20736;-72
2021/11/25 04:17:51;;;;;;;4.70;2.97;;;;;;;;;;5061657;28;20888;-73
2021/11/25 04:20:21;;;;;;;3.50;2.30;;;;;;;;;;5077457;28;20482;-73
2021/11/25 04:22:49;;;;;;;4.67;2.90;;;;;;;;;;5078474;28;20457;-73
2021/11/25 04:25:17;;;;;;;3.63;2.50;;;;;;;;;;5075590;28;20552;-72
2021/11/25 04:27:45;;;;;;;5.17;3.17;;;;;;;;;;5059055;28;20775;-72
2021/11/25 04:30:23;;;;;;;4.23;2.73;;;;;;;;;;5058984;28;20552;-72
2021/11/25 04:35:38;;;;;;;3.27;2.40;;;;;;;;;;5079130;28;20860;-73
2021/11/25 04:38:07;;;;;;;3.87;2.67;;;;;;;;;;5078964;28;21066;-72
2021/11/25 04:40:36;;;;;;;3.70;2.43;;;;;;;;;;5078960;28;20830;-73
2021/11/25 04:43:06;;;;;;;3.90;3.00;;;;;;;;;;5079436;28;20464;-73
2021/11/25 04:45:35;;;;;;;4.77;2.97;;;;;;;;;;5078730;28;20465;-73
2021/11/25 04:48:02;;;;;;;3.97;3.07;;;;;;;;;;5079282;28;20452;-73
2021/11/25 04:50:30;;;;;;;4.70;3.67;;;;;;;;;;5078264;28;20947;-73
2021/11/25 04:53:00;;;;;;;5.07;3.23;;;;;;;;;;5078420;28;20812;-73
2021/11/25 04:55:28;;;;;;;4.47;3.00;;;;;;;;;;5076783;28;20452;-73
2021/11/25 04:57:55;;;;;;;3.90;3.10;;;;;;;;;;5059777;28;20499;-73
2021/11/25 05:00:24;;;;;;;4.90;3.37;;;;;;;;;;5057923;28;20779;-73
2021/11/25 05:02:52;;;;;;;3.63;2.53;;;;;;;;;;5057912;28;20515;-72
2021/11/25 05:05:20;;;;;;;3.60;2.20;;;;;;;;;;5057482;28;20473;-72
2021/11/25 05:07:48;;;;;;;4.07;2.60;;;;;;;;;;5058241;28;20880;-73
2021/11/25 05:10:17;;;;;;;3.60;2.67;;;;;;;;;;5057238;28;20464;-73
2021/11/25 05:12:45;;;;;;;4.73;2.90;;;;;;;;;;5057839;28;20453;-73
2021/11/25 05:15:14;;;;;;;6.03;2.83;;;;;;;;;;5057387;28;20477;-74
2021/11/25 05:17:42;;;;;;;3.73;2.80;;;;;;;;;;5056934;28;20507;-73
2021/11/25 05:20:17;;;;;;;3.40;2.90;;;;;;;;;;5057556;28;20472;-74
2021/11/25 05:22:48;;;;;;;6.30;3.27;;;;;;;;;;5057341;28;20449;-72
2021/11/25 05:25:19;;;;;;;4.83;2.97;;;;;;;;;;5057782;28;20769;-72
2021/11/25 05:27:47;;;;;;;6.87;3.23;;;;;;;;;;5057876;28;20467;-72
2021/11/25 05:30:16;;;;;;;3.60;3.10;;;;;;;;;;5058089;28;20483;-72
2021/11/25 05:32:47;;;;;;;3.27;2.33;;;;;;;;;;5055754;28;20454;-73
2021/11/25 05:35:15;;;;;;;5.77;3.20;;;;;;;;;;5056788;28;20489;-73
2021/11/25 05:37:44;;;;;;;3.40;2.77;;;;;;;;;;5056937;28;20477;-73
2021/11/25 05:40:12;;;;;;;2.97;2.27;;;;;;;;;;5056904;28;20505;-73
2021/11/25 05:42:42;;;;;;;4.60;2.77;;;;;;;;;;5056914;28;20471;-73
2021/11/25 05:45:11;;;;;;;4.87;3.57;;;;;;;;;;5064864;28;20933;-73
2021/11/25 05:47:40;;;;;;;5.80;3.50;;;;;;;;;;5059063;28;20463;-73
2021/11/25 05:50:09;;;;;;;4.30;2.83;;;;;;;;;;5058286;28;20872;-73
2021/11/25 05:52:37;;;;;;;4.07;3.20;;;;;;;;;;5061374;28;20529;-73
2021/11/25 05:55:05;;;;;;;3.70;2.60;;;;;;;;;;5059871;28;20453;-73
2021/11/25 05:57:33;;;;;;;5.30;3.30;;;;;;;;;;5058464;28;20461;-73
2021/11/25 06:00:02;;;;;;;5.00;2.70;;;;;;;;;;5059802;28;20472;-72
2021/11/25 06:02:31;;;;;;;5.40;3.23;;;;;;;;;;5055974;28;20490;-73
2021/11/25 06:04:58;;;;;;;6.40;3.63;;;;;;;;;;5066529;28;20495;-73
2021/11/25 06:07:26;;;;;;;3.23;2.63;;;;;;;;;;5076748;28;20458;-72
2021/11/25 06:09:54;;;;;;;3.17;2.50;;;;;;;;;;5075993;28;20460;-72
2021/11/25 06:12:22;;;;;;;5.07;2.70;;;;;;;;;;5078312;28;20768;-72
2021/11/25 06:14:50;;;;;;;4.60;3.07;;;;;;;;;;5075543;28;20445;-72
2021/11/25 06:17:33;;;;;;;7.83;2.93;;;;;;;;;;5075471;28;20526;-72
2021/11/25 06:20:03;;;;;;;6.60;3.67;;;;;;;;;;5076316;28;20460;-72
2021/11/25 06:22:31;;;;;;;5.10;3.93;;;;;;;;;;5075254;28;20533;-72
2021/11/25 06:24:58;;;;;;;5.77;3.20;;;;;;;;;;5075692;28;20488;-72
2021/11/25 06:27:26;;;;;;;5.37;3.70;;;;;;;;;;5077108;28;20873;-72
2021/11/25 06:29:56;;;;;;;6.77;3.80;;;;;;;;;;5075168;28;20486;-73
2021/11/25 06:32:29;;;;;;;5.90;3.37;;;;;;;;;;5063953;28;20876;-73
2021/11/25 06:34:58;;;;;;;5.93;3.40;;;;;;;;;;5064447;28;20514;-72
2021/11/25 06:37:26;;;;;;;5.30;3.13;;;;;;;;;;5074115;28;20448;-73
2021/11/25 06:39:57;;;;;;;4.13;2.83;;;;;;;;;;5074210;28;20592;-73
2021/11/25 06:42:28;;;;;;;5.00;3.00;;;;;;;;;;5072972;28;20509;-73
2021/11/25 06:44:56;;;;;;;4.63;3.30;;;;;;;;;;5065604;28;20481;-72
2021/11/25 06:47:24;;;;;;;4.50;3.10;;;;;;;;;;5063579;28;20451;-72
2021/11/25 06:49:54;;;;;;;5.43;3.53;;;;;;;;;;5068997;28;21090;-73
2021/11/25 06:52:21;;;;;;;5.40;2.93;;;;;;;;;;5058016;28;20449;-73
2021/11/25 06:54:49;;;;;;;5.50;3.97;;;;;;;;;;5072169;28;20472;-73
2021/11/25 06:57:22;;;;;;;4.27;3.57;;;;;;;;;;5076488;28;20456;-73
2021/11/25 06:59:50;;;;;;;7.00;4.47;;;;;;;;;;5077939;28;20610;-72
2021/11/25 07:02:18;;;;;;;5.10;2.97;;;;;;;;;;5077209;28;20460;-72
2021/11/25 07:04:46;;;;;;;4.80;3.30;;;;;;;;;;5078315;28;20663;-73
2021/11/25 07:07:16;;;;;;;5.03;3.57;;;;;;;;;;5071925;28;20961;-73
2021/11/25 07:09:44;;;;;;;4.90;3.37;;;;;;;;;;5061280;28;20585;-72
2021/11/25 07:12:17;;;;;;;4.70;3.40;;;;;;;;;;5062351;28;20460;-73
2021/11/25 07:14:45;;;;;;;4.07;2.93;;;;;;;;;;5078566;28;20467;-73
2021/11/25 07:17:20;;;;;;;7.30;4.33;;;;;;;;;;5077748;28;20546;-73
2021/11/25 07:19:48;;;;;;;7.07;4.20;;;;;;;;;;5060506;28;20876;-73
2021/11/25 07:22:17;;;;;;;7.83;5.20;;;;;;;;;;5058261;28;20445;-72
2021/11/25 07:24:46;;;;;;;6.30;4.90;;;;;;;;;;5068620;28;20485;-73
2021/11/25 07:27:17;;;;;;;6.70;3.57;;;;;;;;;;5064606;28;20486;-73
2021/11/25 07:29:46;;;;;;;8.23;6.20;;;;;;;;;;5065551;28;20448;-72
2021/11/25 07:32:17;;;;;;;7.00;4.50;;;;;;;;;;5076389;28;20472;-73
2021/11/25 07:34:45;;;;;;;7.23;3.30;;;;;;;;;;5058868;28;20452;-73
2021/11/25 07:37:13;;;;;;;5.40;2.97;;;;;;;;;;5061863;28;20484;-73
2021/11/25 07:39:42;;;;;;;7.53;2.87;;;;;;;;;;5073066;28;20453;-73
2021/11/25 07:42:10;;;;;;;6.53;4.60;;;;;;;;;;5064871;28;20482;-73
2021/11/25 07:44:38;;;;;;;7.07;4.67;;;;;;;;;;5078575;28;20480;-73
2021/11/25 07:47:06;;;;;;;6.23;5.40;;;;;;;;;;5078583;28;20449;-73
2021/11/25 07:49:33;;;;;;;9.13;3.97;;;;;;;;;;5077680;28;20467;-72
2021/11/25 07:52:04;;;;;;;8.07;4.27;;;;;;;;;;5079368;28;20472;-73
2021/11/25 07:54:36;;;;;;;7.50;4.60;;;;;;;;;;5071088;28;20457;-73
2021/11/25 07:57:07;;;;;;;9.87;4.93;;;;;;;;;;5059243;28;20473;-73
2021/11/25 07:59:35;;;;;;;6.33;4.20;;;;;;;;;;5059693;28;20468;-73
2021/11/25 08:04:52;;;;;;;8.87;4.60;;;;;;;;;;5070769;28;20550;-73
2021/11/25 08:07:22;;;;;;;9.70;5.13;;;;;;;;;;5073478;28;20544;-73
2021/11/25 08:09:50;;;;;;;7.23;4.43;;;;;;;;;;5078690;28;20529;-73
2021/11/25 08:12:22;;;;;;;6.57;4.97;;;;;;;;;;5068661;28;20461;-73
2021/11/25 08:14:50;;;;;;;7.73;5.93;;;;;;;;;;5058311;28;20807;-73
2021/11/25 08:17:18;;;;;;;10.00;5.00;;;;;;;;;;5075554;28;20477;-73
2021/11/25 08:19:48;;;;;;;8.70;6.23;;;;;;;;;;5078240;28;20498;-73
2021/11/25 08:22:16;;;;;;;8.30;5.40;;;;;;;;;;5077384;28;20818;-74
2021/11/25 08:24:44;;;;;;;8.87;5.50;;;;;;;;;;5074747;28;20871;-73
2021/11/25 08:27:13;;;;;;;13.60;6.53;;;;;;;;;;5078307;28;20458;-74
2021/11/25 08:29:43;;;;;;;13.30;8.37;;;;;;;;;;5078582;28;20468;-73
2021/11/25 08:32:10;;;;;;;11.33;7.30;;;;;;;;;;5078720;28;20478;-73
2021/11/25 08:34:39;;;;;;;19.63;9.20;;;;;;;;;;5079083;28;20464;-73
2021/11/25 08:37:10;;;;;;;12.60;8.07;;;;;;;;;;5064948;28;20445;-73
2021/11/25 08:39:38;;;;;;;14.07;7.70;;;;;;;;;;5076261;28;20525;-73
2021/11/25 08:42:18;;;;;;;13.97;9.50;;;;;;;;;;5076669;28;20452;-73
2021/11/25 08:44:58;;;;;;;17.93;10.07;;;;;;;;;;5072501;28;20942;-73
2021/11/25 08:47:26;;;;;;;13.30;9.07;;;;;;;;;;5077031;28;20467;-73
2021/11/25 08:49:53;;;;;;;12.60;8.60;;;;;;;;;;5059775;28;20457;-72
2021/11/25 08:52:21;;;;;;;15.57;9.30;;;;;;;;;;5065873;28;20437;-73
2021/11/25 08:54:49;;;;;;;23.40;13.20;;;;;;;;;;5077469;28;20458;-74
2021/11/25 08:57:17;;;;;;;28.20;11.83;;;;;;;;;;5069729;28;20556;-74
2021/11/25 08:59:45;;;;;;;16.00;9.83;;;;;;;;;;5073364;28;20797;-73
2021/11/25 09:02:19;;;;;;;13.37;7.53;;;;;;;;;;5077755;28;20456;-73
2021/11/25 09:04:48;;;;;;;14.27;9.00;;;;;;;;;;5078121;28;20492;-73
2021/11/25 09:07:16;;;;;;;18.13;11.73;;;;;;;;;;5074843;28;20549;-74
2021/11/25 09:09:47;;;;;;;15.13;9.10;;;;;;;;;;5058775;28;20976;-73
2021/11/25 09:12:16;;;;;;;18.63;9.97;;;;;;;;;;5057063;28;20474;-73
2021/11/25 09:14:44;;;;;;;13.13;9.00;;;;;;;;;;5057852;28;20505;-73
2021/11/25 09:17:12;;;;;;;19.40;10.53;;;;;;;;;;5057574;28;20556;-73
2021/11/25 09:19:41;;;;;;;25.53;12.40;;;;;;;;;;5060248;28;20526;-73
2021/11/25 09:22:09;;;;;;;21.33;12.10;;;;;;;;;;5065976;28;20768;-73
2021/11/25 09:28:06;;;;;;;16.97;9.57;;;;;;;;;;5071979;28;20509;-73
2021/11/25 09:30:35;;;;;;;20.03;11.63;;;;;;;;;;5075434;28;20445;-73
2021/11/25 09:33:07;;;;;;;16.73;10.90;;;;;;;;;;5073985;28;20700;-73
2021/11/25 09:35:37;;;;;;;16.20;11.30;;;;;;;;;;5055736;28;20473;-73
2021/11/25 09:38:07;;;;;;;12.10;8.90;;;;;;;;;;5056547;28;20548;-72
2021/11/25 09:40:35;;;;;;;18.43;9.67;;;;;;;;;;5057051;28;20492;-73
2021/11/25 09:43:11;;;;;;;13.83;8.93;;;;;;;;;;5057063;28;20847;-73
2021/11/25 09:45:41;;;;;;;17.80;12.03;;;;;;;;;;5062799;28;20486;-73
2021/11/25 09:48:10;;;;;;;19.63;12.00;;;;;;;;;;5060316;28;20469;-73
2021/11/25 09:50:43;;;;;;;23.70;13.53;;;;;;;;;;5058255;28;20485;-73
2021/11/25 09:53:12;;;;;;;28.20;17.20;;;;;;;;;;5057218;28;20449;-73
2021/11/25 09:55:42;;;;;;;18.10;11.30;;;;;;;;;;5057409;28;20496;-73
2021/11/25 09:58:12;;;;;;;18.50;10.77;;;;;;;;;;5060866;28;20473;-75
2021/11/25 10:00:41;;;;;;;19.73;10.93;;;;;;;;;;5061290;28;20463;-75
2021/11/25 10:03:15;;;;;;;15.90;9.90;;;;;;;;;;5078088;28;20554;-75
2021/11/25 10:05:46;;;;;;;16.93;9.90;;;;;;;;;;5057207;28;20639;-75
2021/11/25 10:08:31;;;;;;;15.23;10.23;;;;;;;;;;5072216;28;20460;-75
2021/11/25 10:11:04;;;;;;;11.90;7.80;;;;;;;;;;5078552;28;20456;-74
2021/11/25 10:13:45;;;;;;;16.97;11.60;;;;;;;;;;5069467;28;20468;-73
2021/11/25 10:16:16;;;;;;;21.63;11.60;;;;;;;;;;5063661;28;20469;-75
2021/11/25 10:18:47;;;;;;;23.80;14.63;;;;;;;;;;5065680;28;20452;-73
2021/11/25 10:21:18;;;;;;;18.67;12.10;;;;;;;;;;5056851;28;20457;-75
2021/11/25 10:23:58;;;;;;;22.53;12.67;;;;;;;;;;5061401;28;20464;-75
2021/11/25 10:26:33;;;;;;;21.80;12.40;;;;;;;;;;5076329;28;20876;-74
2021/11/25 10:29:06;;;;;;;24.33;14.23;;;;;;;;;;5076093;28;20527;-74
2021/11/25 10:31:37;;;;;;;14.03;10.53;;;;;;;;;;5076993;28;20490;-74
2021/11/25 10:34:37;;;;;;;;;;;;;;;;;;;;;
2021/11/25 10:45:58;;;;;;;22.20;11.10;;;;;;;;;;5042712;28;20991;-75
2021/11/25 10:48:33;;;;;;;18.57;11.90;;;;;;;;;;5072197;28;20456;-75
2021/11/25 10:51:30;;;;;;;19.53;11.90;;;;;;;;;;5079999;28;20440;-74
2021/11/25 10:54:20;;;;;;;20.30;13.03;;;;;;;;;;5068095;28;20479;-74
2021/11/25 10:56:53;;;;;;;27.53;13.87;;;;;;;;;;5070776;28;20469;-73
2021/11/25 10:59:48;;;;;;;26.20;12.43;;;;;;;;;;5077437;28;20453;-73
2021/11/25 11:02:28;;;;;;;16.33;10.20;;;;;;;;;;5070784;28;20481;-72
2021/11/25 11:05:02;;;;;;;27.67;17.40;;;;;;;;;;5064663;28;20713;-74
2021/11/25 11:07:37;;;;;;;39.20;19.77;;;;;;;;;;5063952;28;20563;-73
2021/11/25 11:13:26;;;;;;;27.60;17.80;;;;;;;;;;5067460;28;20486;-74
2021/11/25 11:22:22;;;;;;;30.67;15.90;;;;;;;;;;4431688;27;19727250;-73
2021/11/25 11:24:50;;;;;;;21.80;13.27;;;;;;;;;;5135248;28;20208;-73
2021/11/25 11:27:21;;;;;;;29.00;16.67;;;;;;;;;;5140721;28;20449;-73
2021/11/25 11:32:42;;;;;;;28.80;16.10;;;;;;;;;;5131728;28;20450;-73
2021/11/25 11:38:13;;;;;;;24.77;14.57;;;;;;;;;;5135928;28;20485;-72
2021/11/25 11:40:46;;;;;;;29.30;17.67;;;;;;;;;;5137136;28;20543;-72
2021/11/25 11:51:37;;;;;;;32.33;17.87;;;;;;;;;;5131356;28;20487;-73
2021/11/25 11:54:18;;;;;;;20.87;12.77;;;;;;;;;;5119958;28;20436;-72
2021/11/25 11:56:47;;;;;;;29.63;15.13;;;;;;;;;;5125038;28;20878;-72
2021/11/25 12:06:19;;;;;;;;;;;;;;;;;;;;;
2021/11/25 12:11:47;;;;;;;25.20;14.60;;;;;;;;;;5132168;28;20431;-72
2021/11/25 12:14:19;;;;;;;22.83;12.00;;;;;;;;;;5133644;28;20473;-72
2021/11/25 12:16:49;;;;;;;23.33;14.17;;;;;;;;;;5131857;28;20695;-72
2021/11/25 12:19:24;;;;;;;24.97;15.90;;;;;;;;;;5140293;28;20465;-73
2021/11/25 12:21:54;;;;;;;19.50;11.93;;;;;;;;;;5138148;28;20473;-71
2021/11/25 12:27:17;;;;;;;26.57;15.00;;;;;;;;;;5135279;28;20422;-72
2021/11/25 12:29:56;;;;;;;32.63;15.60;;;;;;;;;;5135427;28;20446;-72
2021/11/25 12:32:52;;;;;;;26.07;17.50;;;;;;;;;;5127608;28;20446;-72
2021/11/25 12:35:50;;;;;;;28.90;18.10;;;;;;;;;;5119487;28;20443;-72
2021/11/25 12:38:37;;;;;;;32.50;16.90;;;;;;;;;;5125158;28;20493;-72
2021/11/25 12:41:06;;;;;;;24.00;13.87;;;;;;;;;;5124365;28;20482;-74
2021/11/25 12:43:42;;;;;;;19.67;13.47;;;;;;;;;;5123386;28;20877;-72
2021/11/25 12:46:19;;;;;;;29.90;15.93;;;;;;;;;;5120261;28;20465;-73
2021/11/25 12:49:08;;;;;;;;;;;;;;;;;;;;;
2021/11/25 12:51:37;;;;;;;24.73;16.00;;;;;;;;;;5117158;27;20438;-72
2021/11/25 12:54:09;;;;;;;26.97;17.10;;;;;;;;;;5109286;28;20472;-73
2021/11/25 12:56:38;;;;;;;27.53;17.17;;;;;;;;;;5117248;28;20458;-72
2021/11/25 12:59:09;;;;;;;29.97;16.33;;;;;;;;;;5117027;28;20463;-73
2021/11/25 13:01:51;;;;;;;31.67;18.50;;;;;;;;;;5116371;28;20491;-73
2021/11/25 13:04:55;;;;;;;17.23;10.60;;;;;;;;;;5117342;28;20825;-74
2021/11/25 13:07:24;;;;;;;25.13;14.63;;;;;;;;;;5103905;28;20548;-73
2021/11/25 13:10:00;;;;;;;22.17;12.90;;;;;;;;;;5116692;28;20772;-74
2021/11/25 13:12:31;;;;;;;23.97;16.07;;;;;;;;;;5103041;28;20460;-73
2021/11/25 13:15:02;;;;;;;28.83;16.53;;;;;;;;;;5098601;28;20538;-73
2021/11/25 13:17:30;;;;;;;25.63;16.80;;;;;;;;;;5098022;28;20944;-74
2021/11/25 13:20:04;;;;;;;27.87;15.37;;;;;;;;;;5107064;28;20447;-73
2021/11/25 13:22:42;;;;;;;30.20;19.27;;;;;;;;;;5113847;28;20518;-73
2021/11/25 13:25:16;;;;;;;25.30;14.33;;;;;;;;;;5117626;28;20891;-74
2021/11/25 13:27:44;;;;;;;35.80;19.57;;;;;;;;;;5118899;28;20426;-74
2021/11/25 13:30:19;;;;;;;39.03;23.53;;;;;;;;;;5115447;28;20776;-74
2021/11/25 13:32:47;;;;;;;28.50;18.03;;;;;;;;;;5116324;28;20865;-74
2021/11/25 13:35:16;;;;;;;19.50;11.63;;;;;;;;;;5117605;28;20520;-73
2021/11/25 13:37:50;;;;;;;26.47;16.43;;;;;;;;;;5118798;28;20439;-73
2021/11/25 13:40:19;;;;;;;30.80;18.20;;;;;;;;;;5116055;28;20436;-73
2021/11/25 13:43:04;;;;;;;26.97;15.30;;;;;;;;;;5105230;28;20461;-73
2021/11/25 13:45:33;;;;;;;25.80;16.60;;;;;;;;;;5116215;28;20455;-74
2021/11/25 13:48:03;;;;;;;30.63;17.97;;;;;;;;;;5103843;28;20559;-73
2021/11/25 13:50:33;;;;;;;32.30;18.70;;;;;;;;;;5096440;28;20454;-73
2021/11/25 13:53:05;;;;;;;26.63;15.27;;;;;;;;;;5096981;28;20462;-73
2021/11/25 13:55:37;;;;;;;26.53;17.57;;;;;;;;;;5115093;28;21176;-73
2021/11/25 13:58:08;;;;;;;27.70;17.60;;;;;;;;;;5115485;28;20451;-73
2021/11/25 14:00:38;;;;;;;30.60;18.90;;;;;;;;;;5115716;28;20478;-72
2021/11/25 14:06:00;;;;;;;22.13;13.47;;;;;;;;;;5088575;28;20457;-73
2021/11/25 14:08:31;;;;;;;25.37;14.43;;;;;;;;;;5116788;28;20821;-74
2021/11/25 14:14:15;;;;;;;27.97;14.77;;;;;;;;;;5075549;28;20444;-73
2021/11/25 14:16:51;;;;;;;27.97;15.27;;;;;;;;;;5095614;28;20451;-73
2021/11/25 14:19:23;;;;;;;33.17;19.20;;;;;;;;;;5096807;28;20521;-73
2021/11/25 14:21:55;;;;;;;30.23;18.57;;;;;;;;;;5096210;28;20919;-73
2021/11/25 14:24:33;;;;;;;24.23;16.60;;;;;;;;;;5101316;28;20522;-74
2021/11/25 14:30:11;;;;;;;27.87;17.83;;;;;;;;;;5116400;28;20436;-74
2021/11/25 14:32:54;;;;;;;16.50;12.50;;;;;;;;;;5114454;28;20485;-73
2021/11/25 14:35:37;;;;;;;21.67;13.90;;;;;;;;;;5111639;28;20772;-73
2021/11/25 14:38:45;;;;;;;28.00;19.77;;;;;;;;;;5096248;28;20478;-72
2021/11/25 14:41:13;;;;;;;21.07;14.00;;;;;;;;;;5104124;28;20484;-73
2021/11/25 14:43:42;;;;;;;34.27;18.07;;;;;;;;;;5114854;28;20746;-74
2021/11/25 14:46:19;;;;;;;23.87;15.70;;;;;;;;;;5115405;28;20550;-73
2021/11/25 14:48:52;;;;;;;29.83;19.63;;;;;;;;;;5113231;28;20446;-73
2021/11/25 14:51:21;;;;;;;28.07;15.73;;;;;;;;;;5116385;28;20878;-73
2021/11/25 14:53:50;;;;;;;27.00;18.40;;;;;;;;;;5101915;28;20514;-74
2021/11/25 14:56:24;;;;;;;32.73;17.07;;;;;;;;;;5106710;28;20447;-73
2021/11/25 14:58:55;;;;;;;27.70;17.00;;;;;;;;;;5117141;28;20450;-73
2021/11/25 15:01:25;;;;;;;22.73;13.87;;;;;;;;;;5115268;28;20474;-73
2021/11/25 15:03:59;;;;;;;24.37;15.03;;;;;;;;;;5104824;28;20537;-74
2021/11/25 15:06:35;;;;;;;33.73;19.40;;;;;;;;;;5100182;28;20526;-74
2021/11/25 15:09:08;;;;;;;31.07;21.00;;;;;;;;;;5094247;28;20469;-73
2021/11/25 15:11:37;;;;;;;35.07;20.37;;;;;;;;;;5094928;28;20463;-74
2021/11/25 15:14:05;;;;;;;33.70;22.97;;;;;;;;;;5100131;28;20743;-74
2021/11/25 15:16:34;;;;;;;32.30;19.57;;;;;;;;;;5108744;28;20508;-73
2021/11/25 15:19:07;;;;;;;41.50;22.23;;;;;;;;;;5113959;28;20747;-72
2021/11/25 15:21:46;;;;;;;28.23;17.70;;;;;;;;;;5098148;28;20475;-73
2021/11/25 15:24:20;;;;;;;40.33;19.10;;;;;;;;;;5108606;28;20802;-72
2021/11/25 15:27:08;;;;;;;31.27;19.33;;;;;;;;;;5111604;28;20476;-73
2021/11/25 15:35:37;;;;;;;31.63;18.93;;;;;;;;;;5111040;28;20447;-73
2021/11/25 15:38:18;;;;;;;32.90;19.57;;;;;;;;;;5102535;28;20494;-72
2021/11/25 15:40:57;;;;;;;29.40;17.33;;;;;;;;;;5092937;28;20458;-74
2021/11/25 15:43:30;;;;;;;28.40;17.10;;;;;;;;;;5113230;28;20430;-72
2021/11/25 15:46:04;;;;;;;35.73;18.93;;;;;;;;;;5115051;28;20554;-72
2021/11/25 15:51:34;;;;;;;28.53;17.20;;;;;;;;;;5110954;28;20439;-72
2021/11/25 15:54:20;;;;;;;28.60;15.90;;;;;;;;;;5107848;28;20439;-72
2021/11/25 15:56:53;;;;;;;22.77;13.57;;;;;;;;;;5115561;28;20462;-74
2021/11/25 16:02:06;;;;;;;30.03;16.00;;;;;;;;;;5095323;28;20482;-73
2021/11/25 16:04:53;;;;;;;32.33;18.00;;;;;;;;;;5113263;28;20870;-74
2021/11/25 16:07:39;;;;;;;33.77;21.13;;;;;;;;;;5115015;28;20503;-74
2021/11/25 16:13:12;;;;;;;31.10;20.13;;;;;;;;;;5104005;28;20436;-73
2021/11/25 16:15:44;;;;;;;33.00;21.43;;;;;;;;;;5111790;28;20447;-72
2021/11/25 16:18:24;;;;;;;;;;;;;;;;;;;;;